sensor_id;sensor_type;location;lat;lon;timestamp;P1;durP1;ratioP1;P2;durP2;ratioP2
43160;SDS011;40968;52.342;5.528;2023-04-10T00:02:11;36.35;;;14.05;;
43160;SDS011;40968;52.342;5.528;2023-04-10T00:04:39;32.67;;;13.77;;
43160;SDS011;40968;52.342;5.528;2023-04-10T00:07:06;38.78;;;14.13;;
43160;SDS011;40968;52.342;5.528;2023-04-10T00:09:32;34.83;;;13.68;;
43160;SDS011;40968;52.342;5.528;2023-04-10T00:11:59;38.85;;;14.20;;
43160;SDS011;40968;52.342;5.528;2023-04-10T00:14:25;32.00;;;14.63;;
43160;SDS011;40968;52.342;5.528;2023-04-10T00:16:52;34.78;;;14.55;;
43160;SDS011;40968;52.342;5.528;2023-04-10T00:19:19;40.63;;;13.85;;
43160;SDS011;40968;52.342;5.528;2023-04-10T00:21:47;34.58;;;13.85;;
43160;SDS011;40968;52.342;5.528;2023-04-10T00:24:13;39.45;;;15.27;;
43160;SDS011;40968;52.342;5.528;2023-04-10T00:26:40;45.20;;;14.35;;
43160;SDS011;40968;52.342;5.528;2023-04-10T00:29:06;36.42;;;14.60;;
43160;SDS011;40968;52.342;5.528;2023-04-10T00:31:33;38.63;;;15.25;;
43160;SDS011;40968;52.342;5.528;2023-04-10T00:34:00;33.95;;;14.15;;
43160;SDS011;40968;52.342;5.528;2023-04-10T00:36:26;40.80;;;14.57;;
43160;SDS011;40968;52.342;5.528;2023-04-10T00:38:54;29.83;;;12.88;;
43160;SDS011;40968;52.342;5.528;2023-04-10T00:41:20;33.35;;;13.38;;
43160;SDS011;40968;52.342;5.528;2023-04-10T00:43:47;35.22;;;13.82;;
43160;SDS011;40968;52.342;5.528;2023-04-10T00:46:14;30.75;;;13.63;;
43160;SDS011;40968;52.342;5.528;2023-04-10T00:48:41;36.35;;;13.90;;
43160;SDS011;40968;52.342;5.528;2023-04-10T00:51:08;43.72;;;15.70;;
43160;SDS011;40968;52.342;5.528;2023-04-10T00:53:34;36.72;;;14.52;;
43160;SDS011;40968;52.342;5.528;2023-04-10T00:56:02;32.40;;;13.10;;
43160;SDS011;40968;52.342;5.528;2023-04-10T00:58:30;40.08;;;13.98;;
43160;SDS011;40968;52.342;5.528;2023-04-10T01:00:56;31.40;;;12.57;;
43160;SDS011;40968;52.342;5.528;2023-04-10T01:03:23;38.72;;;13.57;;
43160;SDS011;40968;52.342;5.528;2023-04-10T01:05:50;37.22;;;12.98;;
43160;SDS011;40968;52.342;5.528;2023-04-10T01:08:29;38.00;;;14.10;;
43160;SDS011;40968;52.342;5.528;2023-04-10T01:11:06;35.08;;;13.13;;
43160;SDS011;40968;52.342;5.528;2023-04-10T01:13:40;37.63;;;13.43;;
43160;SDS011;40968;52.342;5.528;2023-04-10T01:16:14;36.67;;;13.40;;
43160;SDS011;40968;52.342;5.528;2023-04-10T01:18:45;29.88;;;12.57;;
43160;SDS011;40968;52.342;5.528;2023-04-10T01:21:16;33.97;;;13.50;;
43160;SDS011;40968;52.342;5.528;2023-04-10T01:26:46;34.38;;;13.13;;
43160;SDS011;40968;52.342;5.528;2023-04-10T01:29:22;40.58;;;13.70;;
43160;SDS011;40968;52.342;5.528;2023-04-10T01:31:57;33.85;;;12.95;;
43160;SDS011;40968;52.342;5.528;2023-04-10T01:34:30;28.45;;;11.85;;
43160;SDS011;40968;52.342;5.528;2023-04-10T01:37:01;29.58;;;11.85;;
43160;SDS011;40968;52.342;5.528;2023-04-10T01:39:30;39.83;;;13.73;;
43160;SDS011;40968;52.342;5.528;2023-04-10T01:42:01;37.83;;;13.73;;
43160;SDS011;40968;52.342;5.528;2023-04-10T01:44:31;40.00;;;13.57;;
43160;SDS011;40968;52.342;5.528;2023-04-10T01:47:00;31.38;;;12.02;;
43160;SDS011;40968;52.342;5.528;2023-04-10T01:49:28;39.33;;;12.90;;
43160;SDS011;40968;52.342;5.528;2023-04-10T01:51:56;38.33;;;12.50;;
43160;SDS011;40968;52.342;5.528;2023-04-10T01:54:26;34.03;;;12.38;;
43160;SDS011;40968;52.342;5.528;2023-04-10T01:56:53;29.75;;;12.00;;
43160;SDS011;40968;52.342;5.528;2023-04-10T01:59:20;31.55;;;12.00;;
43160;SDS011;40968;52.342;5.528;2023-04-10T02:01:49;33.53;;;12.15;;
43160;SDS011;40968;52.342;5.528;2023-04-10T02:04:21;28.52;;;10.95;;
43160;SDS011;40968;52.342;5.528;2023-04-10T02:06:50;30.40;;;10.95;;
43160;SDS011;40968;52.342;5.528;2023-04-10T02:09:30;30.17;;;10.63;;
43160;SDS011;40968;52.342;5.528;2023-04-10T02:12:06;32.28;;;10.82;;
43160;SDS011;40968;52.342;5.528;2023-04-10T02:14:40;29.45;;;11.20;;
43160;SDS011;40968;52.342;5.528;2023-04-10T02:17:10;26.05;;;11.13;;
43160;SDS011;40968;52.342;5.528;2023-04-10T02:19:41;24.45;;;10.45;;
43160;SDS011;40968;52.342;5.528;2023-04-10T02:22:10;27.50;;;10.15;;
43160;SDS011;40968;52.342;5.528;2023-04-10T02:24:37;24.20;;;10.27;;
43160;SDS011;40968;52.342;5.528;2023-04-10T02:27:03;25.23;;;10.20;;
43160;SDS011;40968;52.342;5.528;2023-04-10T02:29:30;25.15;;;9.90;;
43160;SDS011;40968;52.342;5.528;2023-04-10T02:31:57;32.13;;;9.75;;
43160;SDS011;40968;52.342;5.528;2023-04-10T02:34:24;29.02;;;10.23;;
43160;SDS011;40968;52.342;5.528;2023-04-10T02:36:51;27.90;;;9.50;;
43160;SDS011;40968;52.342;5.528;2023-04-10T02:39:18;25.05;;;9.48;;
43160;SDS011;40968;52.342;5.528;2023-04-10T02:41:45;28.52;;;9.65;;
43160;SDS011;40968;52.342;5.528;2023-04-10T02:44:11;25.25;;;9.70;;
43160;SDS011;40968;52.342;5.528;2023-04-10T02:46:38;29.50;;;10.05;;
43160;SDS011;40968;52.342;5.528;2023-04-10T02:49:06;27.65;;;9.90;;
43160;SDS011;40968;52.342;5.528;2023-04-10T02:51:34;25.70;;;9.13;;
43160;SDS011;40968;52.342;5.528;2023-04-10T02:54:01;22.42;;;8.70;;
43160;SDS011;40968;52.342;5.528;2023-04-10T02:56:27;26.77;;;10.50;;
43160;SDS011;40968;52.342;5.528;2023-04-10T02:58:54;28.40;;;8.43;;
43160;SDS011;40968;52.342;5.528;2023-04-10T03:01:21;22.13;;;9.00;;
43160;SDS011;40968;52.342;5.528;2023-04-10T03:03:47;26.85;;;8.70;;
43160;SDS011;40968;52.342;5.528;2023-04-10T03:06:14;25.27;;;8.38;;
43160;SDS011;40968;52.342;5.528;2023-04-10T03:08:42;26.48;;;8.57;;
43160;SDS011;40968;52.342;5.528;2023-04-10T03:11:08;23.73;;;8.38;;
43160;SDS011;40968;52.342;5.528;2023-04-10T03:13:35;25.58;;;8.27;;
43160;SDS011;40968;52.342;5.528;2023-04-10T03:16:01;27.90;;;9.55;;
43160;SDS011;40968;52.342;5.528;2023-04-10T03:18:28;29.50;;;9.40;;
43160;SDS011;40968;52.342;5.528;2023-04-10T03:20:55;25.15;;;9.07;;
43160;SDS011;40968;52.342;5.528;2023-04-10T03:23:22;24.08;;;7.72;;
43160;SDS011;40968;52.342;5.528;2023-04-10T03:25:50;24.48;;;8.30;;
43160;SDS011;40968;52.342;5.528;2023-04-10T03:28:17;20.45;;;8.02;;
43160;SDS011;40968;52.342;5.528;2023-04-10T03:30:44;28.88;;;8.95;;
43160;SDS011;40968;52.342;5.528;2023-04-10T03:33:10;30.10;;;8.30;;
43160;SDS011;40968;52.342;5.528;2023-04-10T03:35:37;20.95;;;8.52;;
43160;SDS011;40968;52.342;5.528;2023-04-10T03:38:04;21.25;;;8.57;;
43160;SDS011;40968;52.342;5.528;2023-04-10T03:40:30;18.13;;;7.45;;
43160;SDS011;40968;52.342;5.528;2023-04-10T03:42:59;23.10;;;8.55;;
43160;SDS011;40968;52.342;5.528;2023-04-10T03:45:26;19.02;;;7.75;;
43160;SDS011;40968;52.342;5.528;2023-04-10T03:47:52;22.67;;;7.63;;
43160;SDS011;40968;52.342;5.528;2023-04-10T03:50:19;21.75;;;7.82;;
43160;SDS011;40968;52.342;5.528;2023-04-10T03:52:46;21.25;;;7.90;;
43160;SDS011;40968;52.342;5.528;2023-04-10T03:55:13;25.38;;;7.93;;
43160;SDS011;40968;52.342;5.528;2023-04-10T03:57:42;26.25;;;8.88;;
43160;SDS011;40968;52.342;5.528;2023-04-10T04:00:11;17.50;;;7.32;;
43160;SDS011;40968;52.342;5.528;2023-04-10T04:02:38;22.20;;;8.45;;
43160;SDS011;40968;52.342;5.528;2023-04-10T04:05:05;22.35;;;8.15;;
43160;SDS011;40968;52.342;5.528;2023-04-10T04:07:32;19.15;;;7.90;;
43160;SDS011;40968;52.342;5.528;2023-04-10T04:09:59;25.80;;;8.43;;
43160;SDS011;40968;52.342;5.528;2023-04-10T04:12:26;20.38;;;7.30;;
43160;SDS011;40968;52.342;5.528;2023-04-10T04:14:52;20.90;;;8.20;;
43160;SDS011;40968;52.342;5.528;2023-04-10T04:17:20;19.48;;;7.43;;
43160;SDS011;40968;52.342;5.528;2023-04-10T04:19:47;25.25;;;7.75;;
43160;SDS011;40968;52.342;5.528;2023-04-10T04:22:13;27.70;;;8.55;;
43160;SDS011;40968;52.342;5.528;2023-04-10T04:24:40;20.33;;;7.75;;
43160;SDS011;40968;52.342;5.528;2023-04-10T04:27:06;24.98;;;7.30;;
43160;SDS011;40968;52.342;5.528;2023-04-10T04:29:33;22.10;;;7.70;;
43160;SDS011;40968;52.342;5.528;2023-04-10T04:32:00;24.58;;;8.05;;
43160;SDS011;40968;52.342;5.528;2023-04-10T04:34:27;20.45;;;7.18;;
43160;SDS011;40968;52.342;5.528;2023-04-10T04:36:54;21.17;;;8.43;;
43160;SDS011;40968;52.342;5.528;2023-04-10T04:39:21;24.63;;;7.97;;
43160;SDS011;40968;52.342;5.528;2023-04-10T04:41:47;30.25;;;8.73;;
43160;SDS011;40968;52.342;5.528;2023-04-10T04:44:14;23.70;;;7.47;;
43160;SDS011;40968;52.342;5.528;2023-04-10T04:46:41;21.15;;;8.57;;
43160;SDS011;40968;52.342;5.528;2023-04-10T04:49:07;25.92;;;8.27;;
43160;SDS011;40968;52.342;5.528;2023-04-10T04:51:35;19.30;;;7.20;;
43160;SDS011;40968;52.342;5.528;2023-04-10T04:54:02;18.88;;;7.40;;
43160;SDS011;40968;52.342;5.528;2023-04-10T04:56:29;19.92;;;7.65;;
43160;SDS011;40968;52.342;5.528;2023-04-10T04:58:55;20.60;;;6.93;;
43160;SDS011;40968;52.342;5.528;2023-04-10T05:01:22;22.00;;;7.35;;
43160;SDS011;40968;52.342;5.528;2023-04-10T05:03:49;18.75;;;7.53;;
43160;SDS011;40968;52.342;5.528;2023-04-10T05:06:15;16.38;;;7.30;;
43160;SDS011;40968;52.342;5.528;2023-04-10T05:08:44;20.70;;;7.47;;
43160;SDS011;40968;52.342;5.528;2023-04-10T05:11:10;23.60;;;7.82;;
43160;SDS011;40968;52.342;5.528;2023-04-10T05:13:37;19.75;;;7.00;;
43160;SDS011;40968;52.342;5.528;2023-04-10T05:16:04;21.25;;;8.00;;
43160;SDS011;40968;52.342;5.528;2023-04-10T05:18:31;21.55;;;7.10;;
43160;SDS011;40968;52.342;5.528;2023-04-10T05:20:57;22.83;;;7.82;;
43160;SDS011;40968;52.342;5.528;2023-04-10T05:23:24;22.10;;;7.90;;
43160;SDS011;40968;52.342;5.528;2023-04-10T05:25:52;23.17;;;7.75;;
43160;SDS011;40968;52.342;5.528;2023-04-10T05:28:18;19.77;;;7.70;;
43160;SDS011;40968;52.342;5.528;2023-04-10T05:30:45;23.83;;;7.70;;
43160;SDS011;40968;52.342;5.528;2023-04-10T05:33:11;19.52;;;7.95;;
43160;SDS011;40968;52.342;5.528;2023-04-10T05:35:38;21.13;;;8.20;;
43160;SDS011;40968;52.342;5.528;2023-04-10T05:38:04;20.35;;;8.20;;
43160;SDS011;40968;52.342;5.528;2023-04-10T05:40:31;22.30;;;7.95;;
43160;SDS011;40968;52.342;5.528;2023-04-10T05:42:59;22.05;;;7.65;;
43160;SDS011;40968;52.342;5.528;2023-04-10T05:45:25;23.52;;;8.48;;
43160;SDS011;40968;52.342;5.528;2023-04-10T05:47:54;23.27;;;9.18;;
43160;SDS011;40968;52.342;5.528;2023-04-10T05:50:20;27.00;;;8.70;;
43160;SDS011;40968;52.342;5.528;2023-04-10T05:52:47;21.02;;;8.07;;
43160;SDS011;40968;52.342;5.528;2023-04-10T05:55:13;21.75;;;8.27;;
43160;SDS011;40968;52.342;5.528;2023-04-10T05:57:40;22.27;;;7.68;;
43160;SDS011;40968;52.342;5.528;2023-04-10T06:00:09;24.40;;;8.13;;
43160;SDS011;40968;52.342;5.528;2023-04-10T06:02:36;19.40;;;7.63;;
43160;SDS011;40968;52.342;5.528;2023-04-10T06:05:03;22.45;;;7.40;;
43160;SDS011;40968;52.342;5.528;2023-04-10T06:07:30;20.33;;;7.63;;
43160;SDS011;40968;52.342;5.528;2023-04-10T06:09:57;19.05;;;7.30;;
43160;SDS011;40968;52.342;5.528;2023-04-10T06:12:24;20.35;;;8.00;;
43160;SDS011;40968;52.342;5.528;2023-04-10T06:14:50;26.88;;;8.48;;
43160;SDS011;40968;52.342;5.528;2023-04-10T06:17:18;26.35;;;8.73;;
43160;SDS011;40968;52.342;5.528;2023-04-10T06:19:45;22.13;;;8.00;;
43160;SDS011;40968;52.342;5.528;2023-04-10T06:22:12;22.80;;;8.15;;
43160;SDS011;40968;52.342;5.528;2023-04-10T06:24:38;20.63;;;8.73;;
43160;SDS011;40968;52.342;5.528;2023-04-10T06:27:05;24.35;;;9.10;;
43160;SDS011;40968;52.342;5.528;2023-04-10T06:29:31;27.15;;;9.23;;
43160;SDS011;40968;52.342;5.528;2023-04-10T06:31:58;27.75;;;9.88;;
43160;SDS011;40968;52.342;5.528;2023-04-10T06:34:26;28.48;;;9.90;;
43160;SDS011;40968;52.342;5.528;2023-04-10T06:36:52;25.77;;;8.95;;
43160;SDS011;40968;52.342;5.528;2023-04-10T06:39:19;25.95;;;9.25;;
43160;SDS011;40968;52.342;5.528;2023-04-10T06:41:46;26.60;;;9.02;;
43160;SDS011;40968;52.342;5.528;2023-04-10T06:44:13;24.23;;;9.13;;
43160;SDS011;40968;52.342;5.528;2023-04-10T06:46:40;21.90;;;8.05;;
43160;SDS011;40968;52.342;5.528;2023-04-10T06:49:07;24.27;;;8.98;;
43160;SDS011;40968;52.342;5.528;2023-04-10T06:51:35;24.40;;;9.82;;
43160;SDS011;40968;52.342;5.528;2023-04-10T06:54:01;23.08;;;8.40;;
43160;SDS011;40968;52.342;5.528;2023-04-10T06:56:28;18.23;;;7.30;;
43160;SDS011;40968;52.342;5.528;2023-04-10T06:58:54;28.20;;;8.48;;
43160;SDS011;40968;52.342;5.528;2023-04-10T07:01:21;24.05;;;8.45;;
43160;SDS011;40968;52.342;5.528;2023-04-10T07:03:48;23.33;;;8.35;;
43160;SDS011;40968;52.342;5.528;2023-04-10T07:06:14;25.85;;;8.70;;
43160;SDS011;40968;52.342;5.528;2023-04-10T07:08:42;18.08;;;7.78;;
43160;SDS011;40968;52.342;5.528;2023-04-10T07:11:09;19.13;;;7.60;;
43160;SDS011;40968;52.342;5.528;2023-04-10T07:13:36;25.08;;;8.70;;
43160;SDS011;40968;52.342;5.528;2023-04-10T07:16:03;24.50;;;8.55;;
43160;SDS011;40968;52.342;5.528;2023-04-10T07:18:30;21.88;;;8.45;;
43160;SDS011;40968;52.342;5.528;2023-04-10T07:20:56;30.75;;;8.90;;
43160;SDS011;40968;52.342;5.528;2023-04-10T07:23:23;23.38;;;8.40;;
43160;SDS011;40968;52.342;5.528;2023-04-10T07:25:51;20.80;;;7.88;;
43160;SDS011;40968;52.342;5.528;2023-04-10T07:28:17;22.67;;;8.38;;
43160;SDS011;40968;52.342;5.528;2023-04-10T07:30:44;22.63;;;7.57;;
43160;SDS011;40968;52.342;5.528;2023-04-10T07:33:10;21.77;;;7.82;;
43160;SDS011;40968;52.342;5.528;2023-04-10T07:35:37;19.33;;;7.90;;
43160;SDS011;40968;52.342;5.528;2023-04-10T07:38:04;21.75;;;7.68;;
43160;SDS011;40968;52.342;5.528;2023-04-10T07:40:30;22.90;;;8.65;;
43160;SDS011;40968;52.342;5.528;2023-04-10T07:42:58;21.88;;;7.90;;
43160;SDS011;40968;52.342;5.528;2023-04-10T07:45:25;24.00;;;8.40;;
43160;SDS011;40968;52.342;5.528;2023-04-10T07:47:52;21.38;;;7.38;;
43160;SDS011;40968;52.342;5.528;2023-04-10T07:50:19;21.95;;;7.90;;
43160;SDS011;40968;52.342;5.528;2023-04-10T07:52:45;24.42;;;8.52;;
43160;SDS011;40968;52.342;5.528;2023-04-10T07:55:13;22.33;;;8.18;;
43160;SDS011;40968;52.342;5.528;2023-04-10T07:57:40;20.90;;;7.30;;
43160;SDS011;40968;52.342;5.528;2023-04-10T08:00:08;22.50;;;7.47;;
43160;SDS011;40968;52.342;5.528;2023-04-10T08:02:36;20.13;;;6.93;;
43160;SDS011;40968;52.342;5.528;2023-04-10T08:05:05;20.60;;;7.63;;
43160;SDS011;40968;52.342;5.528;2023-04-10T08:07:31;17.95;;;6.93;;
43160;SDS011;40968;52.342;5.528;2023-04-10T08:10:00;21.45;;;7.18;;
43160;SDS011;40968;52.342;5.528;2023-04-10T08:12:27;20.38;;;7.18;;
43160;SDS011;40968;52.342;5.528;2023-04-10T08:14:53;19.48;;;6.45;;
43160;SDS011;40968;52.342;5.528;2023-04-10T08:17:21;22.23;;;6.75;;
43160;SDS011;40968;52.342;5.528;2023-04-10T08:19:48;18.60;;;6.88;;
43160;SDS011;40968;52.342;5.528;2023-04-10T08:22:14;26.10;;;6.70;;
43160;SDS011;40968;52.342;5.528;2023-04-10T08:24:41;23.73;;;7.35;;
43160;SDS011;40968;52.342;5.528;2023-04-10T08:27:08;17.60;;;6.78;;
43160;SDS011;40968;52.342;5.528;2023-04-10T08:29:34;17.20;;;7.63;;
43160;SDS011;40968;52.342;5.528;2023-04-10T08:32:01;21.85;;;7.32;;
43160;SDS011;40968;52.342;5.528;2023-04-10T08:34:29;22.13;;;7.28;;
43160;SDS011;40968;52.342;5.528;2023-04-10T08:36:55;22.52;;;7.10;;
43160;SDS011;40968;52.342;5.528;2023-04-10T08:39:22;22.00;;;7.15;;
43160;SDS011;40968;52.342;5.528;2023-04-10T08:41:49;19.23;;;6.47;;
43160;SDS011;40968;52.342;5.528;2023-04-10T08:44:15;15.57;;;6.70;;
43160;SDS011;40968;52.342;5.528;2023-04-10T08:46:43;16.20;;;6.38;;
43160;SDS011;40968;52.342;5.528;2023-04-10T08:49:13;23.52;;;7.68;;
43160;SDS011;40968;52.342;5.528;2023-04-10T08:51:45;19.50;;;7.22;;
43160;SDS011;40968;52.342;5.528;2023-04-10T08:54:17;16.10;;;6.22;;
43160;SDS011;40968;52.342;5.528;2023-04-10T08:56:48;22.17;;;6.90;;
43160;SDS011;40968;52.342;5.528;2023-04-10T08:59:16;20.45;;;7.65;;
43160;SDS011;40968;52.342;5.528;2023-04-10T09:01:43;22.08;;;7.13;;
43160;SDS011;40968;52.342;5.528;2023-04-10T09:04:10;19.75;;;7.50;;
43160;SDS011;40968;52.342;5.528;2023-04-10T09:06:37;17.90;;;6.50;;
43160;SDS011;40968;52.342;5.528;2023-04-10T09:09:05;20.50;;;7.00;;
43160;SDS011;40968;52.342;5.528;2023-04-10T09:14:25;18.20;;;7.43;;
43160;SDS011;40968;52.342;5.528;2023-04-10T09:16:55;20.30;;;6.93;;
43160;SDS011;40968;52.342;5.528;2023-04-10T09:19:36;17.95;;;6.63;;
43160;SDS011;40968;52.342;5.528;2023-04-10T09:22:02;21.80;;;7.53;;
43160;SDS011;40968;52.342;5.528;2023-04-10T09:24:34;17.08;;;6.38;;
43160;SDS011;40968;52.342;5.528;2023-04-10T09:27:01;17.30;;;7.40;;
43160;SDS011;40968;52.342;5.528;2023-04-10T09:29:38;23.95;;;6.80;;
43160;SDS011;40968;52.342;5.528;2023-04-10T09:32:07;20.77;;;7.07;;
43160;SDS011;40968;52.342;5.528;2023-04-10T09:34:34;19.58;;;6.93;;
43160;SDS011;40968;52.342;5.528;2023-04-10T09:37:16;23.20;;;7.97;;
43160;SDS011;40968;52.342;5.528;2023-04-10T09:39:46;21.52;;;6.93;;
43160;SDS011;40968;52.342;5.528;2023-04-10T09:42:12;19.48;;;7.22;;
43160;SDS011;40968;52.342;5.528;2023-04-10T09:44:39;18.35;;;7.15;;
43160;SDS011;40968;52.342;5.528;2023-04-10T09:47:14;20.90;;;7.90;;
43160;SDS011;40968;52.342;5.528;2023-04-10T09:49:43;28.58;;;7.28;;
43160;SDS011;40968;52.342;5.528;2023-04-10T09:52:16;22.58;;;6.88;;
43160;SDS011;40968;52.342;5.528;2023-04-10T09:54:43;21.73;;;7.28;;
43160;SDS011;40968;52.342;5.528;2023-04-10T09:57:11;19.13;;;7.07;;
43160;SDS011;40968;52.342;5.528;2023-04-10T09:59:41;23.98;;;7.43;;
43160;SDS011;40968;52.342;5.528;2023-04-10T10:02:12;16.35;;;6.72;;
43160;SDS011;40968;52.342;5.528;2023-04-10T10:04:39;21.27;;;8.30;;
43160;SDS011;40968;52.342;5.528;2023-04-10T10:07:09;21.50;;;7.50;;
43160;SDS011;40968;52.342;5.528;2023-04-10T10:09:36;18.27;;;6.95;;
43160;SDS011;40968;52.342;5.528;2023-04-10T10:12:03;19.90;;;7.22;;
43160;SDS011;40968;52.342;5.528;2023-04-10T10:14:32;20.23;;;7.50;;
43160;SDS011;40968;52.342;5.528;2023-04-10T10:17:04;21.63;;;7.68;;
43160;SDS011;40968;52.342;5.528;2023-04-10T10:19:37;16.17;;;6.68;;
43160;SDS011;40968;52.342;5.528;2023-04-10T10:22:10;17.63;;;6.70;;
43160;SDS011;40968;52.342;5.528;2023-04-10T10:24:38;22.40;;;7.00;;
43160;SDS011;40968;52.342;5.528;2023-04-10T10:27:09;19.85;;;7.63;;
43160;SDS011;40968;52.342;5.528;2023-04-10T10:29:38;20.35;;;7.63;;
43160;SDS011;40968;52.342;5.528;2023-04-10T10:32:06;19.77;;;6.90;;
43160;SDS011;40968;52.342;5.528;2023-04-10T10:34:33;19.00;;;7.20;;
43160;SDS011;40968;52.342;5.528;2023-04-10T10:37:01;21.23;;;7.32;;
43160;SDS011;40968;52.342;5.528;2023-04-10T10:39:31;18.33;;;6.88;;
43160;SDS011;40968;52.342;5.528;2023-04-10T10:42:08;19.67;;;7.03;;
43160;SDS011;40968;52.342;5.528;2023-04-10T10:44:43;19.02;;;7.25;;
43160;SDS011;40968;52.342;5.528;2023-04-10T10:47:15;20.80;;;6.90;;
43160;SDS011;40968;52.342;5.528;2023-04-10T10:49:51;18.75;;;6.72;;
43160;SDS011;40968;52.342;5.528;2023-04-10T10:52:42;18.05;;;6.53;;
43160;SDS011;40968;52.342;5.528;2023-04-10T10:58:04;17.80;;;6.80;;
43160;SDS011;40968;52.342;5.528;2023-04-10T11:03:32;15.05;;;7.55;;
43160;SDS011;40968;52.342;5.528;2023-04-10T11:05:59;16.35;;;7.00;;
43160;SDS011;40968;52.342;5.528;2023-04-10T11:08:34;16.02;;;6.65;;
43160;SDS011;40968;52.342;5.528;2023-04-10T11:11:06;16.23;;;5.95;;
43160;SDS011;40968;52.342;5.528;2023-04-10T11:13:35;21.88;;;6.97;;
43160;SDS011;40968;52.342;5.528;2023-04-10T11:16:02;16.48;;;6.13;;
43160;SDS011;40968;52.342;5.528;2023-04-10T11:21:31;17.77;;;6.70;;
43160;SDS011;40968;52.342;5.528;2023-04-10T11:24:01;22.92;;;6.85;;
43160;SDS011;40968;52.342;5.528;2023-04-10T11:26:36;14.68;;;5.75;;
43160;SDS011;40968;52.342;5.528;2023-04-10T11:29:05;15.68;;;6.05;;
43160;SDS011;40968;52.342;5.528;2023-04-10T11:31:55;16.85;;;6.18;;
43160;SDS011;40968;52.342;5.528;2023-04-10T11:36:51;15.43;;;6.25;;
43160;SDS011;40968;52.342;5.528;2023-04-10T11:39:17;15.52;;;6.15;;
43160;SDS011;40968;52.342;5.528;2023-04-10T11:41:46;16.63;;;6.68;;
43160;SDS011;40968;52.342;5.528;2023-04-10T11:44:16;17.17;;;6.53;;
43160;SDS011;40968;52.342;5.528;2023-04-10T11:46:45;18.98;;;6.47;;
43160;SDS011;40968;52.342;5.528;2023-04-10T11:49:16;13.70;;;6.32;;
43160;SDS011;40968;52.342;5.528;2023-04-10T11:51:45;17.27;;;6.35;;
43160;SDS011;40968;52.342;5.528;2023-04-10T11:54:14;19.83;;;7.13;;
43160;SDS011;40968;52.342;5.528;2023-04-10T11:56:42;15.93;;;6.72;;
43160;SDS011;40968;52.342;5.528;2023-04-10T11:59:09;16.83;;;6.65;;
43160;SDS011;40968;52.342;5.528;2023-04-10T12:01:38;18.17;;;6.70;;
43160;SDS011;40968;52.342;5.528;2023-04-10T12:04:12;17.85;;;7.43;;
43160;SDS011;40968;52.342;5.528;2023-04-10T12:06:43;15.43;;;6.32;;
43160;SDS011;40968;52.342;5.528;2023-04-10T12:09:14;27.75;;;7.57;;
43160;SDS011;40968;52.342;5.528;2023-04-10T12:11:47;13.25;;;6.20;;
43160;SDS011;40968;52.342;5.528;2023-04-10T12:14:16;19.05;;;6.53;;
43160;SDS011;40968;52.342;5.528;2023-04-10T12:16:43;15.85;;;6.32;;
43160;SDS011;40968;52.342;5.528;2023-04-10T12:19:10;14.27;;;5.72;;
43160;SDS011;40968;52.342;5.528;2023-04-10T12:21:37;14.50;;;6.05;;
43160;SDS011;40968;52.342;5.528;2023-04-10T12:24:06;14.18;;;6.30;;
43160;SDS011;40968;52.342;5.528;2023-04-10T12:26:32;21.27;;;7.50;;
43160;SDS011;40968;52.342;5.528;2023-04-10T12:28:59;17.85;;;7.15;;
43160;SDS011;40968;52.342;5.528;2023-04-10T12:31:27;15.38;;;6.22;;
43160;SDS011;40968;52.342;5.528;2023-04-10T12:33:54;19.50;;;7.18;;
43160;SDS011;40968;52.342;5.528;2023-04-10T12:36:22;14.27;;;6.32;;
43160;SDS011;40968;52.342;5.528;2023-04-10T12:38:51;13.88;;;6.25;;
43160;SDS011;40968;52.342;5.528;2023-04-10T12:41:22;14.88;;;6.43;;
43160;SDS011;40968;52.342;5.528;2023-04-10T12:43:50;19.63;;;6.53;;
43160;SDS011;40968;52.342;5.528;2023-04-10T12:46:24;17.38;;;6.25;;
43160;SDS011;40968;52.342;5.528;2023-04-10T12:48:51;19.70;;;6.75;;
43160;SDS011;40968;52.342;5.528;2023-04-10T12:51:18;19.60;;;6.22;;
43160;SDS011;40968;52.342;5.528;2023-04-10T12:53:45;19.42;;;6.28;;
43160;SDS011;40968;52.342;5.528;2023-04-10T12:56:12;16.20;;;5.90;;
43160;SDS011;40968;52.342;5.528;2023-04-10T12:58:40;15.20;;;6.60;;
43160;SDS011;40968;52.342;5.528;2023-04-10T13:01:08;15.68;;;6.10;;
43160;SDS011;40968;52.342;5.528;2023-04-10T13:03:35;13.10;;;5.40;;
43160;SDS011;40968;52.342;5.528;2023-04-10T13:06:03;14.98;;;5.55;;
43160;SDS011;40968;52.342;5.528;2023-04-10T13:08:31;12.10;;;5.10;;
43160;SDS011;40968;52.342;5.528;2023-04-10T13:10:57;12.38;;;5.13;;
43160;SDS011;40968;52.342;5.528;2023-04-10T13:13:27;12.88;;;5.57;;
43160;SDS011;40968;52.342;5.528;2023-04-10T13:15:56;13.13;;;5.10;;
43160;SDS011;40968;52.342;5.528;2023-04-10T13:18:23;9.63;;;4.85;;
43160;SDS011;40968;52.342;5.528;2023-04-10T13:20:50;13.27;;;4.55;;
43160;SDS011;40968;52.342;5.528;2023-04-10T13:23:16;11.75;;;4.82;;
43160;SDS011;40968;52.342;5.528;2023-04-10T13:25:43;10.30;;;4.40;;
43160;SDS011;40968;52.342;5.528;2023-04-10T13:28:10;15.07;;;4.55;;
43160;SDS011;40968;52.342;5.528;2023-04-10T13:30:37;10.93;;;4.03;;
43160;SDS011;40968;52.342;5.528;2023-04-10T13:33:06;12.48;;;4.55;;
43160;SDS011;40968;52.342;5.528;2023-04-10T13:35:33;9.68;;;4.13;;
43160;SDS011;40968;52.342;5.528;2023-04-10T13:37:59;9.88;;;4.22;;
43160;SDS011;40968;52.342;5.528;2023-04-10T13:40:26;12.90;;;4.72;;
43160;SDS011;40968;52.342;5.528;2023-04-10T13:42:53;10.80;;;3.85;;
43160;SDS011;40968;52.342;5.528;2023-04-10T13:45:19;8.10;;;3.70;;
43160;SDS011;40968;52.342;5.528;2023-04-10T13:47:46;13.30;;;4.25;;
43160;SDS011;40968;52.342;5.528;2023-04-10T13:50:14;12.27;;;4.35;;
43160;SDS011;40968;52.342;5.528;2023-04-10T13:52:41;10.43;;;4.20;;
43160;SDS011;40968;52.342;5.528;2023-04-10T13:55:08;10.77;;;4.05;;
43160;SDS011;40968;52.342;5.528;2023-04-10T13:57:35;10.68;;;4.22;;
43160;SDS011;40968;52.342;5.528;2023-04-10T14:00:01;12.40;;;4.40;;
43160;SDS011;40968;52.342;5.528;2023-04-10T14:02:28;13.35;;;4.40;;
43160;SDS011;40968;52.342;5.528;2023-04-10T14:04:55;14.32;;;4.97;;
43160;SDS011;40968;52.342;5.528;2023-04-10T14:07:23;22.55;;;5.53;;
43160;SDS011;40968;52.342;5.528;2023-04-10T14:09:50;13.38;;;4.85;;
43160;SDS011;40968;52.342;5.528;2023-04-10T14:12:16;12.88;;;4.65;;
43160;SDS011;40968;52.342;5.528;2023-04-10T14:14:43;12.07;;;3.75;;
43160;SDS011;40968;52.342;5.528;2023-04-10T14:17:10;11.60;;;4.75;;
43160;SDS011;40968;52.342;5.528;2023-04-10T14:19:37;8.43;;;3.88;;
43160;SDS011;40968;52.342;5.528;2023-04-10T14:22:04;15.77;;;4.30;;
43160;SDS011;40968;52.342;5.528;2023-04-10T14:24:32;9.55;;;4.30;;
43160;SDS011;40968;52.342;5.528;2023-04-10T14:26:59;12.00;;;4.82;;
43160;SDS011;40968;52.342;5.528;2023-04-10T14:29:26;13.82;;;5.00;;
43160;SDS011;40968;52.342;5.528;2023-04-10T14:31:53;12.02;;;5.00;;
43160;SDS011;40968;52.342;5.528;2023-04-10T14:34:19;13.73;;;5.28;;
43160;SDS011;40968;52.342;5.528;2023-04-10T14:36:46;15.13;;;5.28;;
43160;SDS011;40968;52.342;5.528;2023-04-10T14:39:12;12.27;;;5.40;;
43160;SDS011;40968;52.342;5.528;2023-04-10T14:41:40;15.98;;;5.93;;
43160;SDS011;40968;52.342;5.528;2023-04-10T14:44:07;12.95;;;6.00;;
43160;SDS011;40968;52.342;5.528;2023-04-10T14:46:34;14.40;;;6.22;;
43160;SDS011;40968;52.342;5.528;2023-04-10T14:49:01;12.98;;;5.63;;
43160;SDS011;40968;52.342;5.528;2023-04-10T14:51:28;10.98;;;4.90;;
43160;SDS011;40968;52.342;5.528;2023-04-10T14:53:54;12.88;;;5.10;;
43160;SDS011;40968;52.342;5.528;2023-04-10T14:56:21;11.50;;;4.68;;